首页
METAR-TAF:

METAR-TAF

机场 :

楚克國際機場

維諾, 密克罗尼西亚群岛

纬度: 07-28N, 经度: 151-51E, 海拔: 3米

当前天气观测

该预报发布于14分钟前的18:50 UTC
风速3节,风向多变
温度 27°C
湿度 94%
气压 1008 hPa
能見度: 24.1公里
少量云层高于1300英尺, 积雨云.
多云层高于12000英尺
阴天层高于28000英尺

METAR: PTKK 231850Z VRB03KT 15SM FEW013CB BKN120 OVC280 27/26 A2977 RMK CB NE SLP083 T02720261

时间: 05:04 (19:04 UTC)

预报

该预报发布于1小时和8分钟前的17:56 UTC
预报有效从23日的 18点(UTC)到 24日的 18点(UTC)
风速6节,风向
能見度: 10公里
散云层高于1600英尺
散云层高于4000英尺
多云层高于12000英尺
附近有阵雨

TAF: PTKK 231756Z 2318/2418 18006KT P6SM VCSH SCT016 SCT040 BKN120

超过4000个机场的气象观测和天气预报(METAR&TAF报告)。

可查询的气象台以黄色和红色小点在地图上表示。

将鼠标移到小点上方,可查看气象台名称。

然后点击查看天气观测和预报。

如需切换地图:点击带黑十字的绿色按钮放大地图;点击带横线的绿色按钮缩小地图;或者点击绿色箭头查看邻近地区的地图。


METAR-TAF: